Time;durP1;ratioP1;P1;durP2;ratioP2;P2;SDS_P1;SDS_P2;PMS_P1;PMS_P2;Temp;Humidity;BMP_temperature;BMP_pressure;BME280_temperature;BME280_humidity;BME280_pressure;Samples;Min_cycle;Max_cycle;Signal;HPM_P1;HPM_P2
2023/01/26 00:02:16;;;;;;;34.10;15.70;;;;;;;-2.56;89.94;100656.95;109629;1255;68041;-68
2023/01/26 00:05:05;;;;;;;25.10;10.70;;;;;;;-2.56;89.92;100649.64;109587;1251;71129;-70
2023/01/26 00:07:53;;;;;;;30.30;13.00;;;;;;;-2.60;89.77;100647.44;109472;1253;57300;-68
2023/01/26 00:10:48;;;;;;;29.80;13.80;;;;;;;-2.62;89.81;100649.20;109590;1252;58780;-68
2023/01/26 00:13:37;;;;;;;39.00;17.70;;;;;;;-2.63;90.07;100652.52;109624;1252;74048;-68
2023/01/26 00:16:26;;;;;;;32.20;14.50;;;;;;;-2.64;89.92;100655.66;109504;1253;67693;-67
2023/01/26 00:19:14;;;;;;;32.50;13.90;;;;;;;-2.64;90.12;100651.66;108905;1253;1002554;-68
2023/01/26 00:22:02;;;;;;;31.90;13.90;;;;;;;-2.63;90.13;100647.48;109644;1252;57520;-69
2023/01/26 00:24:50;;;;;;;30.20;14.50;;;;;;;-2.62;90.12;100650.42;109621;1252;60278;-68
2023/01/26 00:27:38;;;;;;;25.10;10.70;;;;;;;-2.66;90.14;100647.35;109596;1253;71818;-68
2023/01/26 00:30:26;;;;;;;28.10;11.00;;;;;;;-2.67;90.10;100652.41;109633;1253;66790;-67
2023/01/26 00:33:16;;;;;;;30.40;12.60;;;;;;;-2.70;90.24;100651.58;109575;1253;73372;-67
2023/01/26 00:36:04;;;;;;;28.10;13.40;;;;;;;-2.71;90.36;100648.46;108816;1252;1002298;-67
2023/01/26 00:38:52;;;;;;;30.90;14.70;;;;;;;-2.72;90.66;100645.88;109648;1253;59586;-67
2023/01/26 00:44:45;;;;;;;32.40;15.10;;;;;;;-2.71;90.78;100629.70;108123;1252;1002664;-68
2023/01/26 00:47:33;;;;;;;28.50;12.90;;;;;;;-2.64;90.95;100629.25;109603;1252;71726;-68
2023/01/26 00:50:21;;;;;;;32.60;15.50;;;;;;;-2.58;90.64;100623.27;109568;1253;57636;-67
2023/01/26 00:53:09;;;;;;;28.00;11.30;;;;;;;-2.58;90.27;100617.52;109614;1253;59083;-68
2023/01/26 00:55:57;;;;;;;29.50;13.70;;;;;;;-2.64;90.34;100606.15;108836;1252;1002322;-66
2023/01/26 00:58:45;;;;;;;27.00;12.30;;;;;;;-2.68;90.30;100604.64;109653;1253;67952;-69
2023/01/26 01:01:33;;;;;;;30.70;13.60;;;;;;;-2.77;90.61;100602.52;109598;1251;73101;-68
2023/01/26 01:04:21;;;;;;;34.10;15.00;;;;;;;-2.82;90.77;100601.55;109611;1253;57307;-67
2023/01/26 01:07:09;;;;;;;31.50;14.90;;;;;;;-2.86;91.32;100597.60;109586;1253;61353;-68
2023/01/26 01:09:59;;;;;;;34.90;15.50;;;;;;;-2.86;91.38;100591.88;109618;1252;71028;-66
2023/01/26 01:12:47;;;;;;;34.30;15.50;;;;;;;-2.83;91.51;100590.61;109675;1253;68151;-68
2023/01/26 01:15:37;;;;;;;33.80;15.30;;;;;;;-2.79;91.36;100591.08;109592;1253;70372;-66
2023/01/26 01:18:25;;;;;;;36.90;15.80;;;;;;;-2.78;91.27;100599.39;109602;1253;57327;-67
2023/01/26 01:21:16;;;;;;;31.30;13.50;;;;;;;-2.79;91.57;100603.23;109579;1252;58968;-68
2023/01/26 01:24:04;;;;;;;24.80;10.60;;;;;;;-2.82;91.34;100601.55;109567;1252;73886;-67
2023/01/26 01:26:52;;;;;;;31.50;13.50;;;;;;;-2.82;91.50;100606.40;109639;1253;68142;-67
2023/01/26 01:29:40;;;;;;;27.80;12.20;;;;;;;-2.82;91.65;100610.21;109593;1251;72544;-67
2023/01/26 01:32:28;;;;;;;19.60;8.70;;;;;;;-2.83;91.45;100611.79;109538;1253;58921;-68
2023/01/26 01:35:16;;;;;;;30.80;12.90;;;;;;;-2.90;91.74;100601.14;109588;1253;61219;-66
2023/01/26 01:38:04;;;;;;;27.80;11.70;;;;;;;-2.90;91.77;100604.77;109568;1253;74218;-67
2023/01/26 01:40:53;;;;;;;28.10;12.30;;;;;;;-2.90;92.00;100602.17;109514;1253;67009;-71
2023/01/26 01:43:42;;;;;;;28.80;12.70;;;;;;;-2.85;91.67;100607.31;109371;1252;72792;-67
2023/01/26 01:46:34;;;;;;;32.00;12.90;;;;;;;-2.79;92.27;100602.54;109604;1253;57351;-69
2023/01/26 01:49:51;;;;;;;27.30;12.30;;;;;;;-2.77;91.72;100592.62;108587;1253;1002492;-69
2023/01/26 01:52:40;;;;;;;32.40;12.80;;;;;;;-2.77;91.69;100577.15;109609;1251;72795;-68
2023/01/26 01:55:28;;;;;;;26.30;11.00;;;;;;;-2.79;91.66;100569.88;109585;1252;65770;-70
2023/01/26 01:58:17;;;;;;;28.80;13.10;;;;;;;-2.80;91.82;100565.20;109606;1251;72763;-69
2023/01/26 02:01:05;;;;;;;27.20;11.90;;;;;;;-2.79;91.64;100565.18;109549;1253;59984;-67
2023/01/26 02:03:58;;;;;;;31.90;13.50;;;;;;;-2.75;91.74;100568.79;109627;1252;60150;-67
2023/01/26 02:06:56;;;;;;;30.40;13.10;;;;;;;-2.68;91.66;100567.48;108913;1253;1002168;-68
2023/01/26 02:13:00;;;;;;;29.60;12.30;;;;;;;-2.64;91.19;100560.27;108843;1252;1002201;-67
2023/01/26 02:15:49;;;;;;;27.10;10.80;;;;;;;-2.62;91.08;100554.86;109594;1254;57275;-69
2023/01/26 02:18:37;;;;;;;24.50;10.00;;;;;;;-2.62;91.14;100553.11;109643;1253;60493;-69
2023/01/26 02:21:26;;;;;;;27.80;11.90;;;;;;;-2.60;91.20;100549.64;109612;1254;72779;-68
2023/01/26 02:24:32;;;;;;;26.90;12.00;;;;;;;-2.61;91.12;100551.55;109558;1253;69055;-68
2023/01/26 02:27:20;;;;;;;29.60;13.10;;;;;;;-2.60;91.27;100549.96;109531;1253;71216;-68
2023/01/26 02:30:12;;;;;;;31.10;12.70;;;;;;;-2.57;91.27;100555.13;109598;1252;57566;-68
2023/01/26 02:33:01;;;;;;;27.80;11.50;;;;;;;-2.53;91.25;100544.98;109619;1252;58680;-68
2023/01/26 02:35:49;;;;;;;32.30;14.20;;;;;;;-2.53;90.95;100537.35;109518;1253;74332;-69
2023/01/26 02:38:45;;;;;;;30.70;12.10;;;;;;;-2.56;90.73;100532.54;108833;1253;1002792;-68
2023/01/26 02:44:41;;;;;;;26.60;11.30;;;;;;;-2.64;90.99;100524.31;109603;1254;57371;-68
2023/01/26 02:47:31;;;;;;;27.60;11.10;;;;;;;-2.67;91.07;100522.45;109604;1252;59231;-69
2023/01/26 02:50:19;;;;;;;29.30;11.90;;;;;;;-2.68;91.23;100524.39;109580;1253;73132;-69
2023/01/26 02:53:07;;;;;;;28.00;12.20;;;;;;;-2.70;91.32;100521.98;109625;1252;68987;-68
2023/01/26 02:55:55;;;;;;;25.80;11.40;;;;;;;-2.68;91.53;100519.17;109414;1252;190751;-68
2023/01/26 02:58:44;;;;;;;32.10;13.20;;;;;;;-2.67;91.42;100517.59;109493;1253;57375;-68
2023/01/26 03:01:32;;;;;;;27.50;11.00;;;;;;;-2.65;91.36;100522.42;109601;1253;60777;-70
2023/01/26 03:04:19;;;;;;;28.10;11.80;;;;;;;-2.61;91.47;100528.61;109531;1256;74146;-69
2023/01/26 03:07:07;;;;;;;34.00;14.10;;;;;;;-2.57;91.26;100530.45;109654;1253;69071;-71
2023/01/26 03:09:57;;;;;;;35.20;14.60;;;;;;;-2.52;91.37;100523.44;109455;1252;74209;-69
2023/01/26 03:12:45;;;;;;;30.40;12.90;;;;;;;-2.48;91.36;100529.98;109520;1256;57361;-68
2023/01/26 03:15:41;;;;;;;24.90;10.80;;;;;;;-2.47;91.11;100527.52;109448;1257;60040;-69
2023/01/26 03:27:53;;;;;;;31.00;13.90;;;;;;;-2.52;91.19;100512.31;109547;1254;57503;-66
2023/01/26 03:30:41;;;;;;;30.10;12.80;;;;;;;-2.49;91.29;100511.92;109468;1254;58700;-68
2023/01/26 03:33:30;;;;;;;31.40;12.70;;;;;;;-2.47;91.04;100509.27;109584;1252;73776;-69
2023/01/26 03:36:19;;;;;;;28.60;12.30;;;;;;;-2.48;91.00;100511.38;109615;1253;68110;-68
2023/01/26 03:39:08;;;;;;;26.70;11.30;;;;;;;-2.50;90.79;100514.36;109558;1254;71565;-68
2023/01/26 03:57:30;;;;;;;31.30;13.50;;;;;;;-2.43;91.17;100506.08;109614;1254;57430;-70
2023/01/26 04:00:20;;;;;;;38.00;14.80;;;;;;;-2.42;91.04;100502.92;109558;1252;61799;-69
2023/01/26 04:09:23;;;;;;;24.00;10.70;;;;;;;-2.44;90.74;100494.96;109596;1254;70906;-69
2023/01/26 04:12:11;;;;;;;27.70;10.60;;;;;;;-2.53;90.83;100495.48;109572;1254;57343;-69
2023/01/26 04:21:32;;;;;;;27.00;10.20;;;;;;;-2.52;91.53;100490.05;108847;1253;1002914;-69
2023/01/26 04:24:24;;;;;;;29.80;12.30;;;;;;;-2.49;91.56;100487.93;109602;1251;72810;-68
2023/01/26 04:27:17;;;;;;;30.20;12.60;;;;;;;-2.49;91.63;100482.71;109589;1254;57439;-69
2023/01/26 04:30:08;;;;;;;32.60;13.60;;;;;;;-2.47;91.49;100476.42;109623;1251;58689;-70
2023/01/26 04:32:58;;;;;;;29.90;13.20;;;;;;;-2.44;91.47;100482.98;109475;1252;71859;-68
2023/01/26 04:35:46;;;;;;;26.20;11.90;;;;;;;-2.40;91.53;100483.79;109586;1254;66679;-70
2023/01/26 04:38:35;;;;;;;28.80;12.50;;;;;;;-2.39;91.48;100475.77;109557;1253;73880;-69
2023/01/26 04:41:23;;;;;;;28.20;12.20;;;;;;;-2.33;91.04;100478.63;109548;1252;59433;-69
2023/01/26 04:44:18;;;;;;;24.50;10.80;;;;;;;-2.34;90.83;100481.77;109593;1253;61566;-69
2023/01/26 04:47:06;;;;;;;24.20;9.60;;;;;;;-2.36;90.37;100480.92;109578;1254;72773;-69
2023/01/26 04:49:55;;;;;;;23.60;9.00;;;;;;;-2.40;90.57;100484.63;108100;1254;2002737;-69
2023/01/26 04:52:43;;;;;;;23.20;8.90;;;;;;;-2.39;90.93;100482.88;109558;1252;71427;-68
2023/01/26 04:55:31;;;;;;;25.00;10.70;;;;;;;-2.38;90.58;100482.17;109587;1252;58344;-69
2023/01/26 04:58:20;;;;;;;21.40;8.50;;;;;;;-2.36;90.55;100481.45;108830;1251;1002201;-70
2023/01/26 05:01:08;;;;;;;27.30;10.50;;;;;;;-2.36;90.59;100481.27;109572;1253;73252;-69
2023/01/26 05:04:00;;;;;;;28.20;12.30;;;;;;;-2.37;90.52;100479.90;109632;1254;66460;-68
2023/01/26 05:06:49;;;;;;;25.70;11.80;;;;;;;-2.37;90.37;100479.05;109481;1253;73566;-68
2023/01/26 05:09:37;;;;;;;25.80;11.20;;;;;;;-2.39;90.48;100479.24;108813;1252;1002476;-67
2023/01/26 05:12:45;;;;;;;22.50;10.20;;;;;;;-2.42;90.60;100479.11;109396;1253;60130;-69
2023/01/26 05:16:06;;;;;;;25.70;10.50;;;;;;;-2.40;90.35;100475.08;109560;1252;74228;-68
2023/01/26 05:19:19;;;;;;;21.80;9.00;;;;;;;-2.40;90.48;100478.55;109558;1253;65684;-68
2023/01/26 05:22:30;;;;;;;20.50;8.10;;;;;;;-2.39;90.48;100476.98;109359;1252;73986;-69
2023/01/26 05:25:43;;;;;;;20.90;8.70;;;;;;;-2.38;90.55;100478.36;109467;1253;57296;-68
2023/01/26 05:28:34;;;;;;;18.50;6.70;;;;;;;-2.36;90.83;100479.20;109561;1253;58978;-68
2023/01/26 05:31:22;;;;;;;20.50;8.30;;;;;;;-2.39;90.56;100479.40;108727;1253;1002543;-68
2023/01/26 05:34:10;;;;;;;20.50;8.30;;;;;;;-2.42;90.64;100483.81;109544;1252;67916;-68
2023/01/26 05:36:58;;;;;;;24.70;10.00;;;;;;;-2.42;90.79;100485.55;107967;1253;1002840;-69
2023/01/26 05:39:47;;;;;;;24.00;10.60;;;;;;;-2.42;90.87;100485.71;109434;1252;59443;-66
2023/01/26 05:42:35;;;;;;;22.10;9.80;;;;;;;-2.41;90.79;100482.59;108819;1253;1002229;-68
2023/01/26 05:45:48;;;;;;;22.70;9.50;;;;;;;-2.38;90.83;100487.56;109400;1253;73663;-70
2023/01/26 05:48:37;;;;;;;25.20;9.80;;;;;;;-2.33;90.67;100493.21;109527;1253;68066;-67
2023/01/26 05:51:26;;;;;;;20.20;8.30;;;;;;;-2.34;90.44;100492.02;109550;1253;72802;-70
2023/01/26 05:54:13;;;;;;;22.40;9.30;;;;;;;-2.36;90.54;100493.80;109501;1252;57412;-69
2023/01/26 05:57:02;;;;;;;22.10;8.80;;;;;;;-2.40;90.61;100491.23;109530;1252;60433;-69
2023/01/26 05:59:52;;;;;;;22.10;8.20;;;;;;;-2.39;90.86;100488.63;109479;1252;73186;-68
2023/01/26 06:02:41;;;;;;;17.10;6.30;;;;;;;-2.39;91.01;100495.40;109555;1251;68877;-69
2023/01/26 06:05:32;;;;;;;20.00;8.60;;;;;;;-2.39;90.96;100498.70;108750;1251;1002531;-68
2023/01/26 06:08:25;;;;;;;23.10;10.00;;;;;;;-2.40;91.01;100502.02;109423;1252;58808;-69
2023/01/26 06:11:32;;;;;;;26.30;10.50;;;;;;;-2.40;91.26;100499.23;108722;1253;1002508;-69
2023/01/26 06:14:35;;;;;;;25.60;9.40;;;;;;;-2.38;91.31;100495.21;109434;1252;71522;-68
2023/01/26 06:17:23;;;;;;;26.80;11.00;;;;;;;-2.36;91.24;100491.88;109434;1253;66821;-68
2023/01/26 06:20:19;;;;;;;26.40;10.80;;;;;;;-2.34;91.08;100487.50;109440;1254;72346;-71
2023/01/26 06:23:14;;;;;;;22.50;9.80;;;;;;;-2.34;90.90;100490.45;109374;1253;57399;-69
2023/01/26 06:26:05;;;;;;;21.20;8.20;;;;;;;-2.33;91.07;100486.95;109422;1253;60558;-70
2023/01/26 06:28:54;;;;;;;21.20;8.60;;;;;;;-2.32;91.07;100485.73;109449;1253;71735;-69
2023/01/26 06:31:43;;;;;;;21.40;8.90;;;;;;;-2.34;90.98;100486.63;109303;1254;69123;-69
2023/01/26 06:34:32;;;;;;;20.50;8.20;;;;;;;-2.32;91.18;100485.55;109405;1253;73005;-67
2023/01/26 06:37:20;;;;;;;20.60;8.20;;;;;;;-2.30;91.39;100478.91;108728;1254;1002420;-69
2023/01/26 06:40:14;;;;;;;28.40;11.00;;;;;;;-2.29;91.30;100480.27;109469;1253;59390;-70
2023/01/26 06:43:05;;;;;;;24.30;10.30;;;;;;;-2.29;91.32;100480.10;109547;1252;71656;-70
2023/01/26 06:45:56;;;;;;;31.80;12.60;;;;;;;-2.26;91.27;100483.36;108790;1252;1002492;-69
2023/01/26 06:48:45;;;;;;;28.20;11.10;;;;;;;-2.24;91.07;100481.23;109509;1252;73797;-68
2023/01/26 06:51:38;;;;;;;26.40;9.90;;;;;;;-2.22;91.22;100487.10;109499;1252;59187;-69
2023/01/26 06:54:30;;;;;;;30.40;11.30;;;;;;;-2.23;91.20;100481.04;109521;1252;60470;-67
2023/01/26 06:57:40;;;;;;;22.90;9.20;;;;;;;-2.19;91.41;100479.04;109366;1252;73775;-68
2023/01/26 07:00:51;;;;;;;26.10;10.60;;;;;;;-2.12;91.28;100477.88;108787;1251;1002368;-69
2023/01/26 07:03:51;;;;;;;27.10;10.80;;;;;;;-2.16;91.35;100476.55;109529;1251;70533;-68
2023/01/26 07:06:39;;;;;;;21.10;9.10;;;;;;;-2.30;91.51;100467.08;109495;1252;57328;-69
2023/01/26 07:09:29;;;;;;;22.10;8.70;;;;;;;-2.28;92.03;100466.17;109544;1252;60502;-68
2023/01/26 07:12:17;;;;;;;24.50;10.00;;;;;;;-2.26;92.22;100464.58;108749;1251;1002306;-71
2023/01/26 07:15:06;;;;;;;21.50;8.40;;;;;;;-2.27;92.29;100463.89;109539;1252;68700;-71
2023/01/26 07:17:56;;;;;;;26.00;9.70;;;;;;;-2.21;92.30;100463.45;109515;1252;72640;-69
2023/01/26 07:20:43;;;;;;;31.10;11.90;;;;;;;-2.21;92.24;100462.23;109502;1252;58781;-69
2023/01/26 07:23:34;;;;;;;27.30;10.20;;;;;;;-2.18;92.27;100455.23;109555;1252;58720;-69
2023/01/26 07:26:23;;;;;;;25.90;10.00;;;;;;;-2.17;92.57;100448.59;109604;1252;73161;-68
2023/01/26 07:29:10;;;;;;;33.00;12.00;;;;;;;-2.16;92.36;100448.23;109538;1252;66596;-70
2023/01/26 07:31:58;;;;;;;26.70;10.60;;;;;;;-2.15;92.66;100455.85;109521;1252;72939;-69
2023/01/26 07:34:47;;;;;;;29.80;11.40;;;;;;;-2.11;92.61;100463.10;109558;1252;58115;-67
2023/01/26 07:37:35;;;;;;;33.80;13.00;;;;;;;-2.13;92.67;100453.73;109543;1252;59211;-69
2023/01/26 07:40:23;;;;;;;30.30;11.40;;;;;;;-2.05;92.89;100448.02;109571;1252;71711;-70
2023/01/26 07:43:13;;;;;;;24.80;10.20;;;;;;;-2.02;92.61;100451.45;109546;1252;68164;-68
2023/01/26 07:46:12;;;;;;;26.60;10.10;;;;;;;-2.04;92.82;100451.48;109510;1253;72684;-69
2023/01/26 07:49:00;;;;;;;25.60;9.20;;;;;;;-2.10;92.99;100448.80;109474;1252;57298;-69
2023/01/26 07:51:48;;;;;;;26.70;10.60;;;;;;;-2.11;93.11;100454.73;109541;1252;60441;-68
2023/01/26 07:54:36;;;;;;;32.20;11.70;;;;;;;-2.18;93.51;100451.91;109539;1252;72802;-70
2023/01/26 07:57:24;;;;;;;30.80;12.00;;;;;;;-2.21;93.78;100450.06;109590;1252;66562;-68
2023/01/26 08:00:12;;;;;;;31.30;11.60;;;;;;;-2.22;94.11;100445.39;109462;1252;72385;-69
2023/01/26 08:03:00;;;;;;;37.60;12.40;;;;;;;-2.19;94.39;100446.55;109514;1252;58934;-67
2023/01/26 08:05:51;;;;;;;35.20;11.80;;;;;;;-2.14;94.46;100447.14;109541;1252;59382;-68
2023/01/26 08:08:40;;;;;;;31.70;12.00;;;;;;;-2.11;94.35;100449.36;109525;1251;72218;-68
2023/01/26 08:11:28;;;;;;;31.80;11.90;;;;;;;-2.10;94.43;100445.84;108797;1251;1015041;-67
2023/01/26 08:14:15;;;;;;;33.30;12.60;;;;;;;-2.06;94.55;100446.48;109463;1252;71932;-69
2023/01/26 08:17:03;;;;;;;38.20;14.10;;;;;;;-2.02;94.43;100440.48;109546;1252;57472;-66
2023/01/26 08:19:52;;;;;;;30.50;10.00;;;;;;;-2.00;94.32;100429.66;109536;1252;59925;-68
2023/01/26 08:22:40;;;;;;;34.60;13.40;;;;;;;-2.04;94.55;100423.13;109470;1252;73190;-67
2023/01/26 08:25:28;;;;;;;36.30;13.70;;;;;;;-2.05;94.47;100415.48;109475;1252;69077;-68
2023/01/26 08:28:16;;;;;;;33.90;11.60;;;;;;;-2.03;94.82;100417.36;109492;1253;72624;-67
2023/01/26 08:31:12;;;;;;;42.50;13.80;;;;;;;-1.99;94.93;100419.39;109539;1251;57526;-69
2023/01/26 08:33:59;;;;;;;38.10;14.50;;;;;;;-1.95;94.93;100421.19;109512;1252;59055;-66
2023/01/26 08:36:48;;;;;;;41.10;14.60;;;;;;;-1.84;95.11;100424.64;109537;1252;73767;-69
2023/01/26 08:39:35;;;;;;;38.90;14.20;;;;;;;-1.76;94.74;100427.95;109566;1252;67881;-67
2023/01/26 08:42:24;;;;;;;34.40;13.40;;;;;;;-1.70;94.72;100427.81;109554;1251;72832;-69
2023/01/26 08:45:11;;;;;;;36.60;13.00;;;;;;;-1.62;94.45;100426.96;109485;1252;57869;-70
2023/01/26 08:47:59;;;;;;;29.70;10.70;;;;;;;-1.56;94.39;100425.80;109484;1251;59238;-68
2023/01/26 08:50:47;;;;;;;29.50;11.10;;;;;;;-1.52;93.97;100422.92;109514;1252;73788;-68
2023/01/26 08:53:36;;;;;;;40.60;13.30;;;;;;;-1.55;93.94;100420.36;109571;1251;66422;-69
2023/01/26 08:56:24;;;;;;;44.80;15.30;;;;;;;-1.56;94.08;100420.55;109595;1252;73492;-66
2023/01/26 08:59:12;;;;;;;43.80;15.00;;;;;;;-1.50;94.40;100418.16;109501;1251;58806;-69
2023/01/26 09:02:00;;;;;;;35.90;13.80;;;;;;;-1.47;94.15;100416.19;109491;1252;61512;-70
2023/01/26 09:04:48;;;;;;;44.30;15.30;;;;;;;-1.45;93.89;100413.72;109549;1252;73779;-71
2023/01/26 09:07:36;;;;;;;39.40;14.40;;;;;;;-1.43;93.90;100418.70;109521;1252;67952;-70
2023/01/26 09:10:25;;;;;;;29.00;10.70;;;;;;;-1.45;93.75;100423.27;109532;1252;72665;-70
2023/01/26 09:13:12;;;;;;;42.50;15.10;;;;;;;-1.44;94.05;100428.48;109488;1252;57389;-70
2023/01/26 09:16:14;;;;;;;38.70;13.80;;;;;;;-1.51;94.17;100423.06;109599;1252;61039;-70
2023/01/26 09:19:03;;;;;;;40.80;13.90;;;;;;;-1.52;94.36;100420.30;109528;1252;72726;-69
2023/01/26 09:21:55;;;;;;;40.50;14.70;;;;;;;-1.50;94.52;100416.43;108781;1251;1002398;-70
2023/01/26 09:24:45;;;;;;;39.90;14.10;;;;;;;-1.52;94.69;100413.17;109561;1252;72563;-69
2023/01/26 09:27:33;;;;;;;46.50;15.00;;;;;;;-1.53;94.91;100419.47;109569;1251;58458;-69
2023/01/26 09:30:23;;;;;;;45.90;15.00;;;;;;;-1.49;94.91;100422.33;109576;1252;59145;-69
2023/01/26 09:33:11;;;;;;;47.20;15.40;;;;;;;-1.45;94.94;100420.84;109547;1252;72914;-70
2023/01/26 09:36:09;;;;;;;44.10;16.40;;;;;;;-1.41;94.89;100411.52;109589;1251;67624;-71
2023/01/26 09:38:57;;;;;;;45.90;14.90;;;;;;;-1.31;94.97;100404.52;109560;1251;72390;-70
2023/01/26 09:42:19;;;;;;;47.40;16.90;;;;;;;-1.23;94.93;100399.27;109516;1252;58531;-69
2023/01/26 09:45:11;;;;;;;47.80;15.00;;;;;;;-1.14;94.67;100395.23;109527;1252;60211;-69
2023/01/26 09:48:08;;;;;;;40.80;14.90;;;;;;;-1.11;94.20;100394.98;109606;1252;74179;-69
2023/01/26 09:51:28;;;;;;;43.60;13.60;;;;;;;-1.14;93.93;100399.95;109531;1251;69003;-68
2023/01/26 09:54:40;;;;;;;33.60;11.20;;;;;;;-1.14;94.25;100396.10;108799;1252;1002674;-68
2023/01/26 09:57:54;;;;;;;45.90;15.30;;;;;;;-1.19;94.23;100398.13;109595;1252;59956;-69
2023/01/26 10:00:59;;;;;;;43.70;13.90;;;;;;;-1.19;94.30;100397.08;109596;1252;61151;-70
2023/01/26 10:03:58;;;;;;;39.80;13.40;;;;;;;-1.17;94.37;100400.19;109581;1252;71557;-70
2023/01/26 10:06:52;;;;;;;42.60;13.80;;;;;;;-1.12;94.66;100405.46;109533;1252;65495;-69
2023/01/26 10:10:04;;;;;;;39.40;13.00;;;;;;;-1.16;94.47;100403.80;109543;1251;73134;-70
2023/01/26 10:12:54;;;;;;;41.60;14.20;;;;;;;-1.14;94.94;100404.30;109529;1251;57470;-70
2023/01/26 10:15:49;;;;;;;43.70;15.00;;;;;;;-1.10;95.17;100406.45;109629;1252;60852;-70
2023/01/26 10:19:22;;;;;;;33.50;11.50;;;;;;;-1.05;95.05;100396.75;109446;1254;73830;-69
2023/01/26 10:22:31;;;;;;;41.60;13.80;;;;;;;-1.00;94.68;100391.77;109519;1253;68635;-70
2023/01/26 10:25:45;;;;;;;46.80;15.20;;;;;;;-0.94;95.00;100392.65;108795;1251;1002074;-69
2023/01/26 10:28:35;;;;;;;45.40;15.60;;;;;;;-0.89;94.68;100389.23;108723;1252;1002497;-69
2023/01/26 10:31:55;;;;;;;41.00;13.90;;;;;;;-0.79;94.95;100393.13;109561;1251;60411;-69
2023/01/26 10:34:48;;;;;;;42.30;14.70;;;;;;;-0.68;94.58;100396.35;109520;1252;72759;-69
2023/01/26 10:37:36;;;;;;;43.80;14.00;;;;;;;-0.63;94.13;100393.62;109502;1252;66764;-72
2023/01/26 10:40:24;;;;;;;43.70;14.90;;;;;;;-0.61;94.02;100395.80;109550;1252;72402;-68
2023/01/26 10:43:17;;;;;;;37.50;13.50;;;;;;;-0.54;93.83;100395.27;109474;1251;57584;-70
2023/01/26 10:46:20;;;;;;;39.10;13.50;;;;;;;-0.49;93.68;100395.52;109594;1252;58971;-70
2023/01/26 10:49:08;;;;;;;35.70;12.20;;;;;;;-0.47;93.53;100397.18;109574;1252;72780;-68
2023/01/26 10:52:17;;;;;;;36.20;11.80;;;;;;;-0.47;93.31;100392.66;109501;1252;68562;-70
2023/01/26 10:55:20;;;;;;;42.00;14.00;;;;;;;-0.48;93.73;100392.16;109537;1252;72854;-69
2023/01/26 10:58:53;;;;;;;37.60;13.30;;;;;;;-0.45;93.69;100394.54;109480;1251;58590;-68
2023/01/26 11:01:58;;;;;;;42.90;13.30;;;;;;;-0.43;93.47;100392.90;109002;1258;59978;-68
2023/01/26 11:05:07;;;;;;;47.10;14.60;;;;;;;-0.40;93.51;100397.17;109057;1258;73009;-69
2023/01/26 11:08:01;;;;;;;42.10;14.40;;;;;;;-0.38;93.50;100397.30;108966;1258;68941;-70
2023/01/26 11:10:52;;;;;;;42.60;15.00;;;;;;;-0.34;93.33;100394.40;109008;1258;73790;-67
2023/01/26 11:13:40;;;;;;;42.70;15.70;;;;;;;-0.31;93.33;100393.30;109009;1258;57457;-68
2023/01/26 11:16:28;;;;;;;35.30;11.90;;;;;;;-0.29;93.42;100389.40;109041;1258;60407;-69
2023/01/26 11:19:55;;;;;;;38.20;12.80;;;;;;;-0.30;93.43;100384.36;109068;1258;74324;-67
2023/01/26 11:22:53;;;;;;;43.00;14.40;;;;;;;-0.29;93.38;100378.39;108978;1259;67598;-68
2023/01/26 11:26:11;;;;;;;41.50;14.40;;;;;;;-0.27;93.13;100376.08;108987;1259;73677;-67
2023/01/26 11:29:24;;;;;;;43.70;14.80;;;;;;;-0.31;93.24;100372.71;108989;1259;58999;-66
2023/01/26 11:32:55;;;;;;;46.10;14.40;;;;;;;-0.29;93.06;100375.26;108998;1258;60188;-70
2023/01/26 11:36:04;;;;;;;41.30;13.70;;;;;;;-0.33;93.08;100374.85;108999;1258;72811;-68
2023/01/26 11:39:17;;;;;;;41.70;14.10;;;;;;;-0.35;93.41;100376.47;108603;1252;1002367;-68
2023/01/26 11:42:47;;;;;;;44.00;14.40;;;;;;;-0.36;93.68;100374.73;109538;1251;71718;-68
2023/01/26 11:46:31;;;;;;;35.30;13.10;;;;;;;-0.39;93.60;100370.47;109512;1251;57763;-68
2023/01/26 11:50:03;;;;;;;47.60;17.10;;;;;;;-0.48;93.78;100368.30;109570;1252;59140;-67
2023/01/26 11:53:34;;;;;;;46.80;14.60;;;;;;;-0.53;94.09;100363.35;109546;1252;72900;-70
2023/01/26 11:56:47;;;;;;;39.10;12.00;;;;;;;-0.53;94.54;100358.81;109523;1252;66679;-66
2023/01/26 11:59:52;;;;;;;42.00;13.90;;;;;;;-0.54;94.65;100362.67;109505;1251;73520;-69
2023/01/26 12:02:42;;;;;;;50.60;16.60;;;;;;;-0.55;94.74;100361.85;109514;1251;57550;-67
2023/01/26 12:05:42;;;;;;;46.10;14.80;;;;;;;-0.52;95.02;100353.73;109443;1251;60390;-69
2023/01/26 12:09:11;;;;;;;38.70;13.40;;;;;;;-0.49;94.83;100349.50;109521;1252;71744;-68
2023/01/26 12:12:11;;;;;;;32.00;10.90;;;;;;;-0.48;94.96;100342.31;109429;1252;68060;-68
2023/01/26 12:15:10;;;;;;;41.70;13.40;;;;;;;-0.49;94.91;100339.53;109506;1251;73806;-70
2023/01/26 12:18:20;;;;;;;33.20;12.50;;;;;;;-0.46;95.05;100341.88;109543;1252;57470;-68
2023/01/26 12:21:10;;;;;;;43.40;14.10;;;;;;;-0.42;94.91;100337.43;108770;1252;1002572;-69
2023/01/26 12:24:03;;;;;;;44.90;14.20;;;;;;;-0.41;94.69;100330.94;109513;1251;71688;-68
2023/01/26 12:26:52;;;;;;;41.30;14.20;;;;;;;-0.38;94.87;100325.97;109570;1252;68618;-70
2023/01/26 12:29:53;;;;;;;42.50;15.00;;;;;;;-0.32;94.84;100318.33;109357;1252;72191;-68
2023/01/26 12:32:41;;;;;;;42.60;14.50;;;;;;;-0.27;94.67;100311.03;109561;1251;57597;-71
2023/01/26 12:35:43;;;;;;;45.30;15.00;;;;;;;-0.24;94.33;100308.15;109564;1252;58742;-67
2023/01/26 12:39:12;;;;;;;37.10;13.10;;;;;;;-0.24;94.35;100305.16;109511;1253;73417;-69
2023/01/26 12:42:08;;;;;;;33.20;11.60;;;;;;;-0.23;94.13;100294.36;109591;1252;65520;-69
2023/01/26 12:45:00;;;;;;;43.60;15.50;;;;;;;-0.24;94.18;100291.42;109476;1253;71341;-69
2023/01/26 12:48:10;;;;;;;36.90;13.00;;;;;;;-0.24;94.16;100285.82;109543;1251;57672;-69
2023/01/26 12:51:11;;;;;;;43.30;13.40;;;;;;;-0.24;94.05;100282.16;109530;1252;60265;-69
2023/01/26 12:54:13;;;;;;;34.70;11.10;;;;;;;-0.28;94.25;100285.08;109557;1253;72947;-70
2023/01/26 12:57:06;;;;;;;43.80;14.80;;;;;;;-0.33;94.45;100284.34;109551;1253;66328;-69
2023/01/26 13:00:21;;;;;;;42.00;14.40;;;;;;;-0.32;94.86;100283.27;109420;1253;72954;-67
2023/01/26 13:03:37;;;;;;;40.60;14.70;;;;;;;-0.30;94.72;100285.48;109358;1252;57365;-69
2023/01/26 13:06:27;;;;;;;40.10;14.10;;;;;;;-0.27;94.92;100287.66;109556;1252;60424;-69
2023/01/26 13:09:25;;;;;;;34.00;11.60;;;;;;;-0.29;94.67;100284.25;109350;1254;72740;-69
2023/01/26 13:12:59;;;;;;;38.00;13.80;;;;;;;-0.32;94.77;100282.94;109527;1252;66887;-69
2023/01/26 13:16:15;;;;;;;45.30;14.50;;;;;;;-0.38;94.88;100276.83;109530;1253;73420;-68
2023/01/26 13:19:03;;;;;;;45.20;15.10;;;;;;;-0.38;95.17;100289.19;109567;1252;58786;-69
2023/01/26 13:21:51;;;;;;;41.50;13.30;;;;;;;-0.39;95.26;100290.63;109552;1252;61385;-68
2023/01/26 13:24:38;;;;;;;46.20;16.20;;;;;;;-0.40;95.22;100286.80;109518;1252;72014;-70
2023/01/26 13:27:35;;;;;;;49.30;15.90;;;;;;;-0.35;95.78;100283.02;109529;1252;67756;-71
2023/01/26 13:30:23;;;;;;;51.50;17.00;;;;;;;-0.34;95.60;100274.27;109562;1253;73705;-69
2023/01/26 13:33:19;;;;;;;47.90;16.50;;;;;;;-0.28;95.34;100278.45;109476;1252;58142;-69
2023/01/26 13:36:17;;;;;;;32.90;11.20;;;;;;;-0.28;95.45;100281.73;109524;1253;60143;-68
2023/01/26 13:39:39;;;;;;;36.70;12.80;;;;;;;-0.29;95.37;100283.37;109531;1252;72926;-69
2023/01/26 13:42:37;;;;;;;40.90;13.10;;;;;;;-0.39;95.43;100283.29;109552;1252;67977;-68
2023/01/26 13:45:44;;;;;;;45.00;15.10;;;;;;;-0.46;95.60;100282.62;109469;1252;71149;-69
2023/01/26 13:48:52;;;;;;;47.40;15.70;;;;;;;-0.45;96.10;100282.25;109361;1253;60022;-66
2023/01/26 13:51:42;;;;;;;43.60;15.40;;;;;;;-0.43;96.23;100278.36;109418;1253;58775;-70
2023/01/26 13:54:31;;;;;;;46.40;15.50;;;;;;;-0.40;96.35;100279.85;109388;1251;72886;-72